virtualACA

Welcome To Toronto Pearson Int'L. CYYZ

Hub Roster

Pilot Domicile Rank
Graham Brewer - ACA1346CanadaChief Administrative Officer
Stefan Kleiss - ACA2247AustriaSenior Captain
Ronald Real - ACA2589United StatesChief Pilot
Herve Despres - ACA2620CanadaHub Director
Mike Hillyer - ACA2790CanadaChief Pilot
Norm Murray - ACA3240CanadaSenior Officer
Steve Wilson - ACA3246CanadaFirst Officer
Tony Smith - ACA3304CanadaSecond Officer
Samuel Ribas - ACA3320CanadaNew Hire
Kambiz Mojtabaei - ACA3323CanadaNew Hire
Rafael Rocha - ACA3324BrazilNew Hire

Current Vatsim Weather


CYYZ 041600Z 25014G22KT 15SM FEW050 FEW100 SCT250 29/14 A2977 RMK CU1AC1CI2 CU TR SLP080 DENSITY ALT 2500FT
Toronto Pearson Int'L.